createdAt,value
2017-09-14T00:00:19.010Z,996.75
2017-09-14T00:00:59.527Z,996.76
2017-09-14T00:01:40.034Z,996.73
2017-09-14T00:02:20.546Z,996.66
2017-09-14T00:03:01.055Z,996.57
2017-09-14T00:03:41.559Z,996.61
2017-09-14T00:04:22.090Z,996.62
2017-09-14T00:05:02.602Z,996.66
2017-09-14T00:05:43.102Z,996.63
2017-09-14T00:06:23.645Z,996.64
2017-09-14T00:07:04.132Z,996.64
2017-09-14T00:07:44.634Z,996.66
2017-09-14T00:08:25.154Z,996.66
2017-09-14T00:09:05.676Z,996.62
2017-09-14T00:09:46.159Z,996.64
2017-09-14T00:10:26.662Z,996.66
2017-09-14T00:11:07.198Z,996.57
2017-09-14T00:11:47.675Z,996.52
2017-09-14T00:12:28.168Z,996.54
2017-09-14T00:13:08.662Z,996.49
2017-09-14T00:13:49.172Z,996.41
2017-09-14T00:14:29.690Z,996.28
2017-09-14T00:15:10.172Z,996.35
2017-09-14T00:15:50.694Z,996.4
2017-09-14T00:16:31.174Z,996.44
2017-09-14T00:17:11.686Z,996.38
2017-09-14T00:17:52.207Z,996.42
2017-09-14T00:18:32.730Z,996.44
2017-09-14T00:19:13.225Z,996.39
2017-09-14T00:19:53.726Z,996.44
2017-09-14T00:20:34.232Z,996.36
2017-09-14T00:21:14.745Z,996.33
2017-09-14T00:21:55.218Z,996.34
2017-09-14T00:22:35.745Z,996.32
2017-09-14T00:23:16.240Z,996.3
2017-09-14T00:23:56.735Z,996.27
2017-09-14T00:24:37.264Z,996.34
2017-09-14T00:25:17.720Z,996.3
2017-09-14T00:25:58.237Z,996.35
2017-09-14T00:26:38.710Z,996.27
2017-09-14T00:27:19.210Z,996.25
2017-09-14T00:27:59.708Z,996.28
2017-09-14T00:28:40.225Z,996.22
2017-09-14T00:29:20.721Z,996.23
2017-09-14T00:30:01.248Z,996.25
2017-09-14T00:30:41.779Z,996.25
2017-09-14T00:31:22.285Z,996.22
2017-09-14T00:32:02.794Z,996.19
2017-09-14T00:32:43.321Z,996.22
2017-09-14T00:33:23.800Z,996.16
2017-09-14T00:34:04.318Z,996.15
2017-09-14T00:34:44.855Z,996.17
2017-09-14T00:35:25.351Z,996.19
2017-09-14T00:36:05.856Z,996.14
2017-09-14T00:36:46.374Z,996.11
2017-09-14T00:37:26.905Z,996.14
2017-09-14T00:38:07.411Z,996.1
2017-09-14T00:38:47.969Z,996.12
2017-09-14T00:39:28.459Z,996.09
2017-09-14T00:40:08.958Z,996.06
2017-09-14T00:40:49.448Z,996.07
2017-09-14T00:41:29.969Z,996.08
2017-09-14T00:42:10.486Z,996.09
2017-09-14T00:42:50.977Z,996.1
2017-09-14T00:43:31.463Z,996.13
2017-09-14T00:44:11.977Z,996.18
2017-09-14T00:44:52.464Z,996.19
2017-09-14T00:45:33.015Z,996.16
2017-09-14T00:46:13.502Z,996.2
2017-09-14T00:46:54.007Z,996.17
2017-09-14T00:47:34.513Z,996.19
2017-09-14T00:48:15.058Z,996.11
2017-09-14T00:48:55.561Z,996.15
2017-09-14T00:49:36.076Z,996.09
2017-09-14T00:50:16.566Z,996.11
2017-09-14T00:50:57.082Z,996.04
2017-09-14T00:51:37.587Z,996.07
2017-09-14T00:52:18.088Z,996.05
2017-09-14T00:52:58.620Z,996.03
2017-09-14T00:53:39.168Z,996.02
2017-09-14T00:54:19.688Z,995.99
2017-09-14T00:55:00.199Z,995.98
2017-09-14T00:55:40.721Z,995.97
2017-09-14T00:56:21.256Z,995.95
2017-09-14T00:57:01.781Z,995.96
2017-09-14T00:57:42.279Z,995.93
2017-09-14T00:58:22.791Z,995.98
2017-09-14T00:59:03.292Z,995.96
2017-09-14T00:59:43.830Z,995.92
2017-09-14T01:00:24.292Z,995.9
2017-09-14T01:01:04.817Z,995.93
2017-09-14T01:01:45.283Z,995.85
2017-09-14T01:02:25.788Z,995.86
2017-09-14T01:03:06.290Z,995.86
2017-09-14T01:03:46.830Z,995.84
2017-09-14T01:04:27.281Z,995.84
2017-09-14T01:05:07.785Z,995.81
2017-09-14T01:05:48.299Z,995.82
2017-09-14T01:06:28.804Z,995.79
2017-09-14T01:07:09.345Z,995.75
2017-09-14T01:07:49.862Z,995.71
2017-09-14T01:08:30.310Z,995.74
2017-09-14T01:09:10.831Z,995.72
2017-09-14T01:09:51.340Z,995.69
2017-09-14T01:10:31.824Z,995.67
2017-09-14T01:11:12.464Z,995.66
2017-09-14T01:11:52.908Z,995.67
2017-09-14T01:12:33.391Z,995.63
2017-09-14T01:13:13.893Z,995.64
2017-09-14T01:13:54.390Z,995.71
2017-09-14T01:14:34.887Z,995.75
2017-09-14T01:15:15.387Z,995.76
2017-09-14T01:15:55.902Z,995.78
2017-09-14T01:16:36.374Z,995.81
2017-09-14T01:17:16.880Z,995.82
2017-09-14T01:17:57.402Z,995.85
2017-09-14T01:18:37.890Z,995.86
2017-09-14T01:19:18.391Z,995.83
2017-09-14T01:19:58.897Z,995.85
2017-09-14T01:20:39.382Z,995.9
2017-09-14T01:21:19.904Z,995.89
2017-09-14T01:22:00.361Z,995.87
2017-09-14T01:22:40.855Z,995.89
2017-09-14T01:23:21.380Z,995.84
2017-09-14T01:24:01.848Z,995.87
2017-09-14T01:24:42.375Z,995.84
2017-09-14T01:25:22.877Z,995.8
2017-09-14T01:26:03.373Z,995.82
2017-09-14T01:26:43.878Z,995.89
2017-09-14T01:27:24.386Z,995.93
2017-09-14T01:28:04.902Z,995.91
2017-09-14T01:28:45.411Z,996.01
2017-09-14T01:29:25.954Z,996.04
2017-09-14T01:30:06.452Z,996.09
2017-09-14T01:30:46.900Z,996.14
2017-09-14T01:31:27.434Z,996.23
2017-09-14T01:32:07.893Z,996.23
2017-09-14T01:32:48.417Z,996.21
2017-09-14T01:33:28.925Z,996.21
2017-09-14T01:34:09.445Z,996.2
2017-09-14T01:34:49.962Z,996.21
2017-09-14T01:35:30.475Z,996.22
2017-09-14T01:36:10.984Z,996.17
2017-09-14T01:36:51.532Z,996.14
2017-09-14T01:37:32.053Z,996.12
2017-09-14T01:38:12.552Z,996.18
2017-09-14T01:38:53.064Z,996.27
2017-09-14T01:39:33.547Z,996.31
2017-09-14T01:40:14.060Z,996.35
2017-09-14T01:40:54.565Z,996.39
2017-09-14T01:41:35.077Z,996.43
2017-09-14T01:42:15.631Z,996.5
2017-09-14T01:42:56.173Z,996.58
2017-09-14T01:43:36.703Z,996.61
2017-09-14T01:44:17.248Z,996.6
2017-09-14T01:44:57.748Z,996.56
2017-09-14T01:45:38.258Z,996.48
2017-09-14T01:46:18.773Z,996.41
2017-09-14T01:46:59.280Z,996.46
2017-09-14T01:47:39.812Z,996.46
2017-09-14T01:48:20.309Z,996.48
2017-09-14T01:49:00.827Z,996.48
2017-09-14T01:49:41.376Z,996.41
2017-09-14T01:50:21.864Z,996.5
2017-09-14T01:51:02.357Z,996.58
2017-09-14T01:51:42.856Z,996.69
2017-09-14T01:52:23.375Z,996.72
2017-09-14T01:53:03.886Z,996.72
2017-09-14T01:53:44.408Z,996.62
2017-09-14T01:54:24.943Z,996.57
2017-09-14T01:55:05.454Z,996.53
2017-09-14T01:55:45.982Z,996.36
2017-09-14T01:56:26.468Z,996.32
2017-09-14T01:57:06.981Z,996.28
2017-09-14T01:57:47.466Z,996.34
2017-09-14T01:58:27.975Z,996.45
2017-09-14T01:59:08.476Z,996.47
2017-09-14T01:59:48.967Z,996.39
2017-09-14T02:00:29.486Z,996.12
2017-09-14T02:01:10.007Z,995.95
2017-09-14T02:01:50.529Z,995.94
2017-09-14T02:02:31.052Z,996.08
2017-09-14T02:03:11.563Z,996.26
2017-09-14T02:03:52.095Z,996.38
2017-09-14T02:04:32.613Z,996.35
2017-09-14T02:05:13.136Z,996.2
2017-09-14T02:05:53.683Z,996.12
2017-09-14T02:06:34.184Z,995.94
2017-09-14T02:07:14.702Z,995.86
2017-09-14T02:07:55.227Z,995.98
2017-09-14T02:08:35.743Z,996.15
2017-09-14T02:09:16.266Z,996.28
2017-09-14T02:09:56.799Z,996.37
2017-09-14T02:10:37.329Z,996.34
2017-09-14T02:11:17.842Z,996.25
2017-09-14T02:11:58.337Z,996.14
2017-09-14T02:12:38.855Z,995.85
2017-09-14T02:13:19.382Z,995.63
2017-09-14T02:13:59.908Z,995.49
2017-09-14T02:14:40.432Z,995.53
2017-09-14T02:15:20.971Z,995.72
2017-09-14T02:16:01.485Z,995.88
2017-09-14T02:16:41.978Z,995.91
2017-09-14T02:17:22.479Z,995.9
2017-09-14T02:18:03.015Z,995.8
2017-09-14T02:18:43.494Z,995.84
2017-09-14T02:19:23.998Z,995.9
2017-09-14T02:20:04.536Z,995.9
2017-09-14T02:20:45.077Z,995.99
2017-09-14T02:21:25.608Z,995.99
2017-09-14T02:22:06.105Z,995.91
2017-09-14T02:22:46.630Z,995.77
2017-09-14T02:23:27.177Z,995.59
2017-09-14T02:24:07.696Z,995.45
2017-09-14T02:24:48.233Z,995.42
2017-09-14T02:25:28.733Z,995.49
2017-09-14T02:26:09.208Z,995.57
2017-09-14T02:26:49.775Z,995.56
2017-09-14T02:27:30.241Z,995.63
2017-09-14T02:28:10.777Z,995.66
2017-09-14T02:28:51.277Z,995.7
2017-09-14T02:29:31.807Z,995.76
2017-09-14T02:30:12.321Z,995.78
2017-09-14T02:30:52.862Z,995.85
2017-09-14T02:31:33.394Z,995.85
2017-09-14T02:32:13.908Z,995.86
2017-09-14T02:32:54.437Z,995.88
2017-09-14T02:33:34.973Z,995.83
2017-09-14T02:34:15.516Z,995.77
2017-09-14T02:34:56.028Z,995.87
2017-09-14T02:35:36.558Z,995.83
2017-09-14T02:36:17.133Z,995.84
2017-09-14T02:36:57.597Z,995.83
2017-09-14T02:37:38.135Z,995.86
2017-09-14T02:38:18.685Z,995.87
2017-09-14T02:38:59.211Z,995.83
2017-09-14T02:39:39.735Z,995.83
2017-09-14T02:40:20.242Z,995.83
2017-09-14T02:41:00.771Z,995.79
2017-09-14T02:41:41.280Z,995.8
2017-09-14T02:42:21.789Z,995.75
2017-09-14T02:43:02.306Z,995.75
2017-09-14T02:43:42.803Z,995.73
2017-09-14T02:44:23.325Z,995.61
2017-09-14T02:45:03.856Z,995.59
2017-09-14T02:45:44.405Z,995.52
2017-09-14T02:46:24.884Z,995.48
2017-09-14T02:47:05.448Z,995.43
2017-09-14T02:47:45.971Z,995.39
2017-09-14T02:48:26.467Z,995.34
2017-09-14T02:49:07.014Z,995.26
2017-09-14T02:49:47.540Z,995.35
2017-09-14T02:50:28.067Z,995.46
2017-09-14T02:51:08.575Z,995.57
2017-09-14T02:51:49.086Z,995.61
2017-09-14T02:52:29.610Z,995.72
2017-09-14T02:53:10.111Z,995.78
2017-09-14T02:53:50.638Z,995.73
2017-09-14T02:54:31.126Z,995.75
2017-09-14T02:55:11.620Z,995.74
2017-09-14T02:55:52.136Z,995.63
2017-09-14T02:56:32.717Z,995.52
2017-09-14T02:57:13.198Z,995.47
2017-09-14T02:57:53.717Z,995.41
2017-09-14T02:58:34.232Z,995.35
2017-09-14T02:59:14.740Z,995.35
2017-09-14T02:59:55.274Z,995.34
2017-09-14T03:00:35.791Z,995.35
2017-09-14T03:01:16.332Z,995.36
2017-09-14T03:01:56.851Z,995.42
2017-09-14T03:02:37.390Z,995.47
2017-09-14T03:03:17.923Z,995.46
2017-09-14T03:03:58.444Z,995.49
2017-09-14T03:04:38.941Z,995.52
2017-09-14T03:05:19.477Z,995.52
2017-09-14T03:05:59.987Z,995.5
2017-09-14T03:06:40.519Z,995.55
2017-09-14T03:07:21.021Z,995.53
2017-09-14T03:08:01.535Z,995.51
2017-09-14T03:08:42.071Z,995.58
2017-09-14T03:09:22.724Z,995.62
2017-09-14T03:10:03.248Z,995.61
2017-09-14T03:10:43.771Z,995.64
2017-09-14T03:11:24.300Z,995.61
2017-09-14T03:12:04.806Z,995.65
2017-09-14T03:12:45.329Z,995.6
2017-09-14T03:13:25.864Z,995.55
2017-09-14T03:14:06.376Z,995.5
2017-09-14T03:14:46.898Z,995.5
2017-09-14T03:15:27.440Z,995.49
2017-09-14T03:16:07.934Z,995.51
2017-09-14T03:16:48.444Z,995.53
2017-09-14T03:17:28.966Z,995.54
2017-09-14T03:18:09.538Z,995.56
2017-09-14T03:18:50.060Z,995.55
2017-09-14T03:19:30.557Z,995.6
2017-09-14T03:20:11.077Z,995.61
2017-09-14T03:20:51.590Z,995.6
2017-09-14T03:21:32.124Z,995.59
2017-09-14T03:22:12.625Z,995.59
2017-09-14T03:22:53.182Z,995.56
2017-09-14T03:23:33.705Z,995.54
2017-09-14T03:24:14.200Z,995.54
2017-09-14T03:24:54.737Z,995.56
2017-09-14T03:25:35.273Z,995.56
2017-09-14T03:26:15.776Z,995.54
2017-09-14T03:26:56.306Z,995.55
2017-09-14T03:27:36.817Z,995.57
2017-09-14T03:28:17.324Z,995.57
2017-09-14T03:28:57.803Z,995.59
2017-09-14T03:29:38.331Z,995.58
2017-09-14T03:30:18.860Z,995.59
2017-09-14T03:30:59.389Z,995.58
2017-09-14T03:31:39.908Z,995.58
2017-09-14T03:32:20.421Z,995.56
2017-09-14T03:33:00.991Z,995.58
2017-09-14T03:33:41.486Z,995.54
2017-09-14T03:34:22.003Z,995.56
2017-09-14T03:35:02.544Z,995.57
2017-09-14T03:35:43.042Z,995.59
2017-09-14T03:36:23.560Z,995.63
2017-09-14T03:37:04.133Z,995.58
2017-09-14T03:37:44.633Z,995.59
2017-09-14T03:38:25.173Z,995.56
2017-09-14T03:39:05.688Z,995.61
2017-09-14T03:39:46.201Z,995.63
2017-09-14T03:40:26.725Z,995.61
2017-09-14T03:41:07.252Z,995.65
2017-09-14T03:41:47.812Z,995.68
2017-09-14T03:42:28.335Z,995.66
2017-09-14T03:43:08.868Z,995.69
2017-09-14T03:43:49.387Z,995.69
2017-09-14T03:44:29.899Z,995.67
2017-09-14T03:45:10.401Z,995.63
2017-09-14T03:45:50.914Z,995.63
2017-09-14T03:46:31.442Z,995.6
2017-09-14T03:47:11.948Z,995.53
2017-09-14T03:47:52.458Z,995.46
2017-09-14T03:48:32.986Z,995.45
2017-09-14T03:49:13.490Z,995.45
2017-09-14T03:49:53.999Z,995.38
2017-09-14T03:50:34.837Z,995.37
2017-09-14T03:51:15.377Z,995.34
2017-09-14T03:51:56.640Z,995.39
2017-09-14T03:52:37.218Z,995.41
2017-09-14T03:53:17.728Z,995.46
2017-09-14T03:53:58.254Z,995.47
2017-09-14T03:54:38.757Z,995.45
2017-09-14T03:55:19.288Z,995.48
2017-09-14T03:55:59.784Z,995.43
2017-09-14T03:56:40.316Z,995.42
2017-09-14T03:57:20.830Z,995.4
2017-09-14T03:58:01.336Z,995.4
2017-09-14T03:58:41.879Z,995.38
2017-09-14T03:59:22.379Z,995.41
2017-09-14T04:00:02.907Z,995.44
2017-09-14T04:00:43.429Z,995.46
2017-09-14T04:01:23.969Z,995.43
2017-09-14T04:02:04.477Z,995.38
2017-09-14T04:02:45.011Z,995.38
2017-09-14T04:03:25.535Z,995.41
2017-09-14T04:04:06.063Z,995.37
2017-09-14T04:04:46.583Z,995.4
2017-09-14T04:05:27.097Z,995.44
2017-09-14T04:06:07.614Z,995.51
2017-09-14T04:06:48.168Z,995.5
2017-09-14T04:07:28.680Z,995.52
2017-09-14T04:08:09.210Z,995.51
2017-09-14T04:08:49.738Z,995.52
2017-09-14T04:09:30.267Z,995.48
2017-09-14T04:10:10.778Z,995.49
2017-09-14T04:10:51.336Z,995.42
2017-09-14T04:11:31.928Z,995.4
2017-09-14T04:12:12.465Z,995.39
2017-09-14T04:12:52.986Z,995.39
2017-09-14T04:13:33.515Z,995.36
2017-09-14T04:14:14.042Z,995.42
2017-09-14T04:14:54.581Z,995.41
2017-09-14T04:15:35.120Z,995.41
2017-09-14T04:16:15.648Z,995.34
2017-09-14T04:16:56.186Z,995.33
2017-09-14T04:17:36.668Z,995.31
2017-09-14T04:18:17.170Z,995.3
2017-09-14T04:18:57.699Z,995.33
2017-09-14T04:19:38.233Z,995.37
2017-09-14T04:20:18.759Z,995.37
2017-09-14T04:20:59.280Z,995.38
2017-09-14T04:21:39.837Z,995.47
2017-09-14T04:22:20.617Z,995.43
2017-09-14T04:23:01.144Z,995.42
2017-09-14T04:23:41.680Z,995.41
2017-09-14T04:24:22.219Z,995.42
2017-09-14T04:25:02.739Z,995.43
2017-09-14T04:25:43.253Z,995.42
2017-09-14T04:26:23.777Z,995.42
2017-09-14T04:27:04.306Z,995.49
2017-09-14T04:27:44.801Z,995.47
2017-09-14T04:28:25.320Z,995.48
2017-09-14T04:29:05.848Z,995.48
2017-09-14T04:29:46.408Z,995.5
2017-09-14T04:30:26.943Z,995.53
2017-09-14T04:31:07.473Z,995.56
2017-09-14T04:31:48.006Z,995.52
2017-09-14T04:32:28.534Z,995.53
2017-09-14T04:33:09.054Z,995.5
2017-09-14T04:33:49.578Z,995.52
2017-09-14T04:34:30.084Z,995.5
2017-09-14T04:35:10.631Z,995.55
2017-09-14T04:35:51.168Z,995.56
2017-09-14T04:36:31.688Z,995.61
2017-09-14T04:37:12.205Z,995.59
2017-09-14T04:37:52.741Z,995.56
2017-09-14T04:38:33.259Z,995.57
2017-09-14T04:39:13.761Z,995.49
2017-09-14T04:39:54.266Z,995.46
2017-09-14T04:40:34.784Z,995.46
2017-09-14T04:41:15.290Z,995.48
2017-09-14T04:41:55.816Z,995.47
2017-09-14T04:42:36.320Z,995.45
2017-09-14T04:43:16.852Z,995.46
2017-09-14T04:43:57.385Z,995.44
2017-09-14T04:44:37.927Z,995.43
2017-09-14T04:45:18.412Z,995.4
2017-09-14T04:45:58.987Z,995.39
2017-09-14T04:46:39.502Z,995.34
2017-09-14T04:47:20.016Z,995.35
2017-09-14T04:48:00.577Z,995.32
2017-09-14T04:48:41.199Z,995.32
2017-09-14T04:49:21.756Z,995.26
2017-09-14T04:50:02.202Z,995.22
2017-09-14T04:50:42.707Z,995.24
2017-09-14T04:51:23.194Z,995.21
2017-09-14T04:52:03.708Z,995.18
2017-09-14T04:52:44.345Z,995.15
2017-09-14T04:53:25.509Z,995.17
2017-09-14T04:54:05.981Z,995.14
2017-09-14T04:54:46.504Z,995.13
2017-09-14T04:55:27.005Z,995.11
2017-09-14T04:56:07.586Z,995.04
2017-09-14T04:56:48.091Z,995.02
2017-09-14T04:57:28.630Z,995.03
2017-09-14T04:58:09.121Z,994.92
2017-09-14T04:58:49.662Z,994.87
2017-09-14T04:59:30.221Z,994.85
2017-09-14T05:00:10.728Z,994.82
2017-09-14T05:00:51.362Z,994.78
2017-09-14T05:01:31.868Z,994.72
2017-09-14T05:02:12.399Z,994.71
2017-09-14T05:02:52.946Z,994.67
2017-09-14T05:03:33.447Z,994.64
2017-09-14T05:04:13.972Z,994.62
2017-09-14T05:04:54.472Z,994.6
2017-09-14T05:05:35.027Z,994.5
2017-09-14T05:06:15.549Z,994.4
2017-09-14T05:06:56.071Z,994.41
2017-09-14T05:07:36.614Z,994.44
2017-09-14T05:08:17.135Z,994.56
2017-09-14T05:08:57.650Z,994.65
2017-09-14T05:09:38.201Z,994.77
2017-09-14T05:10:18.728Z,994.9
2017-09-14T05:10:59.252Z,994.96
2017-09-14T05:11:39.764Z,994.98
2017-09-14T05:12:20.288Z,995.01
2017-09-14T05:13:00.819Z,995.03
2017-09-14T05:13:41.314Z,995.02
2017-09-14T05:14:21.832Z,995.07
2017-09-14T05:15:02.337Z,995.14
2017-09-14T05:15:42.849Z,995.27
2017-09-14T05:16:23.380Z,995.35
2017-09-14T05:17:03.879Z,995.39
2017-09-14T05:17:44.399Z,995.35
2017-09-14T05:18:24.903Z,995.33
2017-09-14T05:19:05.431Z,995.25
2017-09-14T05:19:45.952Z,995.23
2017-09-14T05:20:26.486Z,995.2
2017-09-14T05:21:06.992Z,995.21
2017-09-14T05:21:47.496Z,995.18
2017-09-14T05:22:28.022Z,995.22
2017-09-14T05:23:08.521Z,995.22
2017-09-14T05:23:49.040Z,995.25
2017-09-14T05:24:29.543Z,995.2
2017-09-14T05:25:10.065Z,995.22
2017-09-14T05:25:50.605Z,995.24
2017-09-14T05:26:31.123Z,995.14
2017-09-14T05:27:11.620Z,995.12
2017-09-14T05:27:52.144Z,995.11
2017-09-14T05:28:32.642Z,995.11
2017-09-14T05:29:13.173Z,995.11
2017-09-14T05:29:53.661Z,995.11
2017-09-14T05:30:34.170Z,995.16
2017-09-14T05:31:14.696Z,995.15
2017-09-14T05:31:55.852Z,995.14
2017-09-14T05:32:36.520Z,995.09
2017-09-14T05:33:17.052Z,995.07
2017-09-14T05:33:57.563Z,995.05
2017-09-14T05:34:38.090Z,995.01
2017-09-14T05:35:18.601Z,995
2017-09-14T05:35:59.135Z,995.03
2017-09-14T05:36:39.646Z,994.98
2017-09-14T05:37:20.157Z,994.97
2017-09-14T05:38:00.685Z,994.91
2017-09-14T05:38:41.208Z,994.91
2017-09-14T05:39:21.711Z,994.84
2017-09-14T05:40:02.249Z,994.77
2017-09-14T05:40:42.788Z,994.68
2017-09-14T05:41:23.323Z,994.68
2017-09-14T05:42:03.811Z,994.76
2017-09-14T05:42:44.354Z,994.85
2017-09-14T05:43:24.846Z,994.89
2017-09-14T05:44:05.358Z,994.91
2017-09-14T05:44:45.875Z,994.95
2017-09-14T05:45:26.415Z,994.92
2017-09-14T05:46:06.930Z,994.91
2017-09-14T05:46:47.461Z,994.98
2017-09-14T05:47:28.023Z,994.99
2017-09-14T05:48:08.568Z,995.01
2017-09-14T05:48:49.099Z,994.98
2017-09-14T05:49:29.628Z,995.03
2017-09-14T05:50:10.158Z,994.93
2017-09-14T05:50:50.672Z,994.85
2017-09-14T05:51:31.221Z,994.81
2017-09-14T05:52:11.742Z,994.8
2017-09-14T05:52:52.252Z,994.86
2017-09-14T05:53:32.809Z,994.88
2017-09-14T05:54:13.328Z,994.92
2017-09-14T05:54:53.823Z,994.96
2017-09-14T05:55:34.359Z,994.95
2017-09-14T05:56:14.857Z,994.91
2017-09-14T05:56:55.382Z,994.89
2017-09-14T05:57:35.894Z,994.81
2017-09-14T05:58:16.428Z,994.85
2017-09-14T05:58:57.041Z,994.81
2017-09-14T05:59:37.595Z,994.83
2017-09-14T06:00:18.171Z,994.84
2017-09-14T06:00:58.694Z,994.91
2017-09-14T06:01:39.240Z,994.9
2017-09-14T06:02:19.736Z,994.84
2017-09-14T06:03:00.398Z,994.88
2017-09-14T06:03:40.958Z,994.87
2017-09-14T06:04:21.732Z,994.9
2017-09-14T06:05:02.159Z,994.94
2017-09-14T06:05:43.035Z,994.96
2017-09-14T06:06:23.489Z,994.95
2017-09-14T06:07:04.080Z,994.92
2017-09-14T06:07:44.588Z,994.88
2017-09-14T06:08:25.123Z,994.87
2017-09-14T06:09:05.789Z,994.83
2017-09-14T06:09:46.308Z,994.88
2017-09-14T06:10:26.826Z,994.86
2017-09-14T06:11:07.360Z,994.92
2017-09-14T06:11:47.861Z,994.91
2017-09-14T06:12:28.475Z,994.99
2017-09-14T06:13:09.163Z,995.1
2017-09-14T06:13:49.705Z,995.2
2017-09-14T06:14:30.233Z,995.22
2017-09-14T06:15:10.755Z,995.24
2017-09-14T06:15:51.274Z,995.25
2017-09-14T06:16:31.891Z,995.33
2017-09-14T06:17:12.488Z,995.39
2017-09-14T06:17:53.142Z,995.41
2017-09-14T06:18:33.638Z,995.47
2017-09-14T06:19:14.152Z,995.55
2017-09-14T06:19:54.765Z,995.58
2017-09-14T06:20:35.272Z,995.66
2017-09-14T06:21:15.783Z,995.7
2017-09-14T06:21:56.288Z,995.59
2017-09-14T06:22:36.830Z,995.52
2017-09-14T06:23:17.389Z,995.46
2017-09-14T06:23:57.908Z,995.4
2017-09-14T06:24:38.414Z,995.25
2017-09-14T06:25:18.940Z,995.13
2017-09-14T06:25:59.472Z,995.07
2017-09-14T06:26:39.999Z,995.01
2017-09-14T06:27:20.494Z,995
2017-09-14T06:28:01.012Z,994.98
2017-09-14T06:28:41.527Z,994.98
2017-09-14T06:29:22.050Z,995.01
2017-09-14T06:30:02.567Z,995.05
2017-09-14T06:30:43.086Z,995.13
2017-09-14T06:31:23.620Z,995.13
2017-09-14T06:32:04.155Z,995.07
2017-09-14T06:32:44.668Z,995.03
2017-09-14T06:33:25.177Z,994.98
2017-09-14T06:34:05.731Z,994.98
2017-09-14T06:34:46.224Z,994.91
2017-09-14T06:35:26.747Z,994.95
2017-09-14T06:36:07.267Z,994.91
2017-09-14T06:36:47.802Z,995.02
2017-09-14T06:37:28.323Z,995.05
2017-09-14T06:38:08.846Z,995.05
2017-09-14T06:38:49.359Z,995.07
2017-09-14T06:39:29.865Z,995.13
2017-09-14T06:40:10.380Z,995.07
2017-09-14T06:40:50.885Z,995.01
2017-09-14T06:41:31.458Z,994.9
2017-09-14T06:42:11.971Z,994.88
2017-09-14T06:42:52.492Z,994.99
2017-09-14T06:43:33.028Z,995.1
2017-09-14T06:44:13.522Z,995.16
2017-09-14T06:44:54.049Z,995.19
2017-09-14T06:45:34.581Z,995.2
2017-09-14T06:46:15.121Z,995.2
2017-09-14T06:46:55.631Z,995.3
2017-09-14T06:47:36.143Z,995.36
2017-09-14T06:48:16.673Z,995.39
2017-09-14T06:48:57.221Z,995.41
2017-09-14T06:49:37.742Z,995.36
2017-09-14T06:50:18.264Z,995.28
2017-09-14T06:50:58.795Z,995.21
2017-09-14T06:51:39.329Z,995.18
2017-09-14T06:52:19.849Z,995.19
2017-09-14T06:53:00.384Z,995.23
2017-09-14T06:53:40.909Z,995.18
2017-09-14T06:54:21.423Z,995.17
2017-09-14T06:55:01.939Z,995.12
2017-09-14T06:55:42.445Z,995.22
2017-09-14T06:56:22.977Z,995.12
2017-09-14T06:57:03.509Z,995.13
2017-09-14T06:57:44.026Z,995.05
2017-09-14T06:58:24.556Z,995.05
2017-09-14T06:59:05.084Z,995.09
2017-09-14T06:59:45.614Z,995.1
2017-09-14T07:00:26.147Z,995.13
2017-09-14T07:01:06.680Z,995.11
2017-09-14T07:01:47.208Z,995.13
2017-09-14T07:02:27.724Z,995.14
2017-09-14T07:03:08.247Z,995.17
2017-09-14T07:03:48.779Z,995.17
2017-09-14T07:04:29.303Z,995.17
2017-09-14T07:05:09.826Z,995.13
2017-09-14T07:05:50.377Z,995.24
2017-09-14T07:06:30.907Z,995.31
2017-09-14T07:07:11.425Z,995.39
2017-09-14T07:07:51.943Z,995.38
2017-09-14T07:08:32.474Z,995.38
2017-09-14T07:09:13.041Z,995.38
2017-09-14T07:09:53.572Z,995.26
2017-09-14T07:10:34.092Z,995.13
2017-09-14T07:11:14.600Z,994.86
2017-09-14T07:11:55.128Z,994.67
2017-09-14T07:12:35.634Z,994.49
2017-09-14T07:13:16.161Z,994.49
2017-09-14T07:13:56.684Z,994.6
2017-09-14T07:14:37.206Z,994.85
2017-09-14T07:15:17.748Z,994.99
2017-09-14T07:15:58.252Z,995.06
2017-09-14T07:16:38.770Z,995.12
2017-09-14T07:17:19.303Z,995.06
2017-09-14T07:17:59.859Z,995.07
2017-09-14T07:18:40.373Z,994.96
2017-09-14T07:19:20.896Z,994.92
2017-09-14T07:20:01.427Z,995.05
2017-09-14T07:20:41.920Z,995.17
2017-09-14T07:21:22.443Z,995.29
2017-09-14T07:22:02.982Z,995.38
2017-09-14T07:22:43.514Z,995.4
2017-09-14T07:23:24.039Z,995.32
2017-09-14T07:24:04.545Z,995.22
2017-09-14T07:24:45.073Z,995.14
2017-09-14T07:25:25.572Z,995.06
2017-09-14T07:26:06.094Z,995.1
2017-09-14T07:26:46.635Z,995.11
2017-09-14T07:27:27.173Z,995.13
2017-09-14T07:28:07.692Z,995.14
2017-09-14T07:28:48.231Z,995.19
2017-09-14T07:29:28.799Z,995.27
2017-09-14T07:30:09.319Z,995.33
2017-09-14T07:30:49.832Z,995.29
2017-09-14T07:31:30.376Z,995.32
2017-09-14T07:32:10.875Z,995.3
2017-09-14T07:32:51.401Z,995.4
2017-09-14T07:33:31.917Z,995.41
2017-09-14T07:34:12.459Z,995.42
2017-09-14T07:34:52.977Z,995.39
2017-09-14T07:35:33.512Z,995.39
2017-09-14T07:36:14.047Z,995.41
2017-09-14T07:36:54.591Z,995.42
2017-09-14T07:37:35.115Z,995.46
2017-09-14T07:38:15.623Z,995.49
2017-09-14T07:38:56.150Z,995.53
2017-09-14T07:39:36.671Z,995.6
2017-09-14T07:40:17.194Z,995.58
2017-09-14T07:40:57.728Z,995.59
2017-09-14T07:41:38.261Z,995.61
2017-09-14T07:42:18.782Z,995.64
2017-09-14T07:42:59.297Z,995.66
2017-09-14T07:43:39.818Z,995.67
2017-09-14T07:44:20.354Z,995.67
2017-09-14T07:45:00.896Z,995.71
2017-09-14T07:45:41.429Z,995.77
2017-09-14T07:46:21.973Z,995.78
2017-09-14T07:47:02.501Z,995.78
2017-09-14T07:47:43.019Z,995.81
2017-09-14T07:48:23.560Z,995.76
2017-09-14T07:49:04.075Z,995.7
2017-09-14T07:49:44.591Z,995.67
2017-09-14T07:50:25.107Z,995.66
2017-09-14T07:51:05.641Z,995.66
2017-09-14T07:51:46.164Z,995.58
2017-09-14T07:52:26.691Z,995.58
2017-09-14T07:53:07.233Z,995.59
2017-09-14T07:53:47.761Z,995.61
2017-09-14T07:54:28.289Z,995.59
2017-09-14T07:55:08.807Z,995.63
2017-09-14T07:55:49.356Z,995.57
2017-09-14T07:56:29.873Z,995.58
2017-09-14T07:57:10.397Z,995.56
2017-09-14T07:57:50.892Z,995.57
2017-09-14T07:58:31.417Z,995.52
2017-09-14T07:59:11.985Z,995.54
2017-09-14T07:59:52.520Z,995.49
2017-09-14T08:00:33.040Z,995.53
2017-09-14T08:01:13.560Z,995.51
2017-09-14T08:01:54.089Z,995.55
2017-09-14T08:02:34.606Z,995.6
2017-09-14T08:03:15.165Z,995.63
2017-09-14T08:03:55.689Z,995.74
2017-09-14T08:04:36.209Z,995.81
2017-09-14T08:05:16.755Z,995.86
2017-09-14T08:05:57.269Z,995.88
2017-09-14T08:06:37.799Z,995.97
2017-09-14T08:07:18.331Z,996
2017-09-14T08:07:58.855Z,996
2017-09-14T08:08:39.378Z,996.01
2017-09-14T08:09:19.895Z,996
2017-09-14T08:10:00.425Z,996
2017-09-14T08:10:40.950Z,995.97
2017-09-14T08:11:21.496Z,995.91
2017-09-14T08:12:02.020Z,995.86
2017-09-14T08:12:42.548Z,995.88
2017-09-14T08:13:23.083Z,995.91
2017-09-14T08:14:03.619Z,995.9
2017-09-14T08:14:44.146Z,995.97
2017-09-14T08:15:24.663Z,996
2017-09-14T08:16:05.171Z,996.04
2017-09-14T08:16:45.712Z,996.08
2017-09-14T08:17:26.227Z,996.08
2017-09-14T08:18:06.766Z,996.11
2017-09-14T08:18:47.294Z,996.14
2017-09-14T08:19:27.831Z,996.14
2017-09-14T08:20:08.348Z,996.21
2017-09-14T08:20:48.871Z,996.23
2017-09-14T08:21:29.409Z,996.26
2017-09-14T08:22:09.924Z,996.23
2017-09-14T08:22:50.452Z,996.21
2017-09-14T08:23:30.991Z,996.23
2017-09-14T08:24:11.522Z,996.25
2017-09-14T08:24:52.039Z,996.26
2017-09-14T08:25:32.564Z,996.24
2017-09-14T08:26:13.099Z,996.23
2017-09-14T08:26:53.625Z,996.31
2017-09-14T08:27:34.164Z,996.34